»·PEaware :: N143VT KSBA-KMRY

N143VT :: KSBA-KMRY

FLIGHT INFORMATION

Flight Status: Arrived
Operator: Privately registered:
United States
More flights under this callsign
Pilot: Anonymous 16492 (16492)
Aircraft: ECLIPSE 500
(EA50)
More flights by this aircraft type
Origin: KSBA Santa Barbara Mun
United States
Destination: KMRY Monterey Peninsula
United States
More flights between these airports :: More routes between these airports
Route: +WIGGL MRY
File this flight plan on PilotEdge
Remarks:
Altitude:
(Current/Filed)
22,000ft
Speed:
(Current/Filed)
330kts
Departed: 11-Sep-18 04:48 PM
Arrived: 11-Sep-18 05:41 PM
Distance/Time
Traveled:
163nm/0:52
Distance/Time
To Go:
Arrived

Flight Plot

Page will automatically refresh every two minutes.

Flight plan parsing failed; only flown route is shown


Map Options




Map Legend


Flown Route
Filed Route
Departure Airport
Arrival Airport
Navaid (VOR, NDB)
Fix

Horizontal Profiles

Position Reports

Time Latitude Longitude Heading Altitude Ground
Speed
11-Sep-18 16:33 34.432434 -119.835555 70 16ft 0kts
11-Sep-18 16:34 34.432434 -119.835555 70 16ft 0kts
11-Sep-18 16:35 34.432434 -119.835555 70 16ft 0kts
11-Sep-18 16:36 34.432434 -119.835555 70 16ft 0kts
11-Sep-18 16:37 34.432434 -119.835555 70 16ft 0kts
11-Sep-18 16:38 34.432434 -119.835555 70 16ft 0kts
11-Sep-18 16:39 34.432434 -119.835555 70 16ft 0kts
11-Sep-18 16:40 34.432434 -119.835555 70 16ft 0kts
11-Sep-18 16:41 34.432434 -119.835555 70 16ft 0kts
11-Sep-18 16:42 34.432434 -119.835555 70 16ft 0kts
11-Sep-18 16:43 34.432434 -119.835555 70 16ft 0kts
11-Sep-18 16:44 34.432434 -119.835555 70 16ft 0kts
11-Sep-18 16:45 34.431993 -119.835391 177 16ft 8kts
11-Sep-18 16:46 34.429032 -119.834827 118 16ft 4kts
11-Sep-18 16:47 34.428786 -119.834655 173 16ft 0kts
11-Sep-18 16:48 34.428786 -119.834655 173 16ft 0kts
11-Sep-18 16:49 34.427916 -119.835208 255 16ft 10kts
11-Sep-18 16:50 34.427646 -119.867118 251 669ft 159kts
11-Sep-18 16:51 34.386437 -119.889877 183 2982ft 199kts
11-Sep-18 16:52 34.335188 -119.898172 214 4491ft 170kts
11-Sep-18 16:53 34.294711 -119.926911 214 5681ft 170kts
11-Sep-18 16:54 34.268918 -119.965015 303 6725ft 163kts
11-Sep-18 16:55 34.310830 -119.988889 334 7766ft 169kts
11-Sep-18 16:56 34.357048 -120.011003 335 9153ft 176kts
11-Sep-18 16:57 34.401784 -120.031818 335 10748ft 173kts
11-Sep-18 16:58 34.446582 -120.052404 336 12152ft 175kts
11-Sep-18 16:59 34.492490 -120.073331 336 13428ft 179kts
11-Sep-18 17:00 34.537805 -120.098231 321 14620ft 180kts
11-Sep-18 17:01 34.578002 -120.134477 320 15733ft 184kts
11-Sep-18 17:02 34.619246 -120.172068 320 16791ft 187kts
11-Sep-18 17:03 34.661024 -120.210362 320 17779ft 190kts
11-Sep-18 17:04 34.703555 -120.249480 319 18709ft 193kts
11-Sep-18 17:05 34.746406 -120.288979 319 19584ft 196kts
11-Sep-18 17:06 34.789948 -120.329188 319 20410ft 199kts
11-Sep-18 17:07 34.834318 -120.370225 318 21190ft 201kts
11-Sep-18 17:08 34.879219 -120.411814 318 21898ft 205kts
11-Sep-18 17:09 34.927929 -120.457024 318 21934ft 235kts
11-Sep-18 17:10 34.982031 -120.507271 318 21924ft 254kts
11-Sep-18 17:11 35.039386 -120.560627 318 21918ft 265kts
11-Sep-18 17:12 35.098384 -120.615658 318 21909ft 272kts
11-Sep-18 17:13 35.158464 -120.671779 317 21912ft 275kts
11-Sep-18 17:14 35.219707 -120.729079 317 21911ft 278kts
11-Sep-18 17:15 35.273825 -120.794907 305 21910ft 275kts
11-Sep-18 17:16 35.320699 -120.867078 304 21909ft 276kts
11-Sep-18 17:17 35.367840 -120.940586 304 21908ft 276kts
11-Sep-18 17:18 35.414826 -121.014189 304 21896ft 270kts
11-Sep-18 17:19 35.460352 -121.085756 303 21885ft 263kts
11-Sep-18 17:20 35.521665 -121.129274 347 21261ft 305kts
11-Sep-18 17:21 35.610695 -121.146077 343 19265ft 339kts
11-Sep-18 17:22 35.700308 -121.168060 342 17252ft 316kts
11-Sep-18 17:23 35.786175 -121.190556 343 15247ft 313kts
11-Sep-18 17:24 35.869916 -121.212845 343 13237ft 305kts
11-Sep-18 17:25 35.951257 -121.234611 344 11227ft 295kts
11-Sep-18 17:26 36.029247 -121.255512 344 9838ft 276kts
11-Sep-18 17:27 36.094663 -121.273015 343 9861ft 222kts
11-Sep-18 17:28 36.152855 -121.288745 343 9883ft 226kts
11-Sep-18 17:29 36.214316 -121.305351 343 9889ft 226kts
11-Sep-18 17:30 36.275353 -121.321858 343 9888ft 226kts
11-Sep-18 17:31 36.336568 -121.338455 343 9596ft 237kts
11-Sep-18 17:32 36.400121 -121.355675 343 7587ft 220kts
11-Sep-18 17:33 36.446300 -121.396690 313 5580ft 205kts
11-Sep-18 17:34 36.484226 -121.444026 312 4991ft 193kts
11-Sep-18 17:35 36.522162 -121.492367 311 4990ft 179kts
11-Sep-18 17:36 36.557541 -121.537957 311 4995ft 183kts
11-Sep-18 17:37 36.571000 -121.593015 254 4239ft 191kts
11-Sep-18 17:38 36.565202 -121.649832 276 3876ft 173kts
11-Sep-18 17:39 36.569998 -121.704799 274 3313ft 141kts
11-Sep-18 17:40 36.573935 -121.749980 271 2399ft 122kts
11-Sep-18 17:41 36.574122 -121.790228 270 1508ft 111kts
11-Sep-18 17:42 36.580354 -121.824422 287 519ft 88kts
11-Sep-18 17:43 36.587171 -121.844976 284 258ft 23kts
11-Sep-18 17:44 36.586809 -121.846235 279 258ft 7kts
11-Sep-18 17:45 36.587710 -121.850309 234 258ft 0kts
11-Sep-18 17:46 36.587710 -121.850309 234 258ft 0kts
11-Sep-18 17:47 36.587710 -121.850309 234 258ft 0kts
11-Sep-18 17:48 36.587710 -121.850309 234 258ft 0kts
11-Sep-18 17:49 36.587710 -121.850309 234 258ft 0kts

Navigation Log

Ident Type
Flight plan parsing failed, navigation log unavailable